sensor_id;sensor_type;location;lat;lon;timestamp;temperature;humidity
66088;DHT22;52872;52.994;6.940;2022-09-13T00:01:09;20.40;90.90
66088;DHT22;52872;52.994;6.940;2022-09-13T00:03:36;20.40;91.10
66088;DHT22;52872;52.994;6.940;2022-09-13T00:06:17;20.40;91.20
66088;DHT22;52872;52.994;6.940;2022-09-13T00:08:45;20.40;91.30
66088;DHT22;52872;52.994;6.940;2022-09-13T00:11:24;20.30;91.40
66088;DHT22;52872;52.994;6.940;2022-09-13T00:13:52;20.40;91.40
66088;DHT22;52872;52.994;6.940;2022-09-13T00:16:21;20.30;91.50
66088;DHT22;52872;52.994;6.940;2022-09-13T00:18:48;20.20;91.50
66088;DHT22;52872;52.994;6.940;2022-09-13T00:21:18;20.20;91.60
66088;DHT22;52872;52.994;6.940;2022-09-13T00:23:52;20.20;91.60
66088;DHT22;52872;52.994;6.940;2022-09-13T00:26:22;20.20;91.70
66088;DHT22;52872;52.994;6.940;2022-09-13T00:28:51;20.10;91.80
66088;DHT22;52872;52.994;6.940;2022-09-13T00:31:23;20.10;91.90
66088;DHT22;52872;52.994;6.940;2022-09-13T00:33:50;20.10;92.00
66088;DHT22;52872;52.994;6.940;2022-09-13T00:36:19;20.10;92.10
66088;DHT22;52872;52.994;6.940;2022-09-13T00:38:46;20.10;92.20
66088;DHT22;52872;52.994;6.940;2022-09-13T00:41:14;20.10;92.30
66088;DHT22;52872;52.994;6.940;2022-09-13T00:43:46;20.10;92.50
66088;DHT22;52872;52.994;6.940;2022-09-13T00:48:50;20.10;92.60
66088;DHT22;52872;52.994;6.940;2022-09-13T00:51:19;20.00;92.70
66088;DHT22;52872;52.994;6.940;2022-09-13T00:53:49;20.00;92.80
66088;DHT22;52872;52.994;6.940;2022-09-13T00:56:24;20.00;92.90
66088;DHT22;52872;52.994;6.940;2022-09-13T00:58:59;20.00;93.10
66088;DHT22;52872;52.994;6.940;2022-09-13T01:01:36;20.00;93.20
66088;DHT22;52872;52.994;6.940;2022-09-13T01:04:05;20.00;93.40
66088;DHT22;52872;52.994;6.940;2022-09-13T01:06:38;20.00;93.60
66088;DHT22;52872;52.994;6.940;2022-09-13T01:09:07;20.00;93.70
66088;DHT22;52872;52.994;6.940;2022-09-13T01:11:48;20.00;93.90
66088;DHT22;52872;52.994;6.940;2022-09-13T01:14:17;19.90;94.00
66088;DHT22;52872;52.994;6.940;2022-09-13T01:16:45;19.90;94.20
66088;DHT22;52872;52.994;6.940;2022-09-13T01:19:13;19.90;94.30
66088;DHT22;52872;52.994;6.940;2022-09-13T01:31:01;19.90;94.70
66088;DHT22;52872;52.994;6.940;2022-09-13T01:37:13;19.90;94.90
66088;DHT22;52872;52.994;6.940;2022-09-13T01:47:36;19.90;95.20
66088;DHT22;52872;52.994;6.940;2022-09-13T01:50:21;19.80;95.30
66088;DHT22;52872;52.994;6.940;2022-09-13T01:53:00;19.90;95.30
66088;DHT22;52872;52.994;6.940;2022-09-13T01:55:39;19.90;95.50
66088;DHT22;52872;52.994;6.940;2022-09-13T01:58:38;19.90;95.50
66088;DHT22;52872;52.994;6.940;2022-09-13T02:01:17;19.90;95.50
66088;DHT22;52872;52.994;6.940;2022-09-13T02:03:56;19.90;95.60
66088;DHT22;52872;52.994;6.940;2022-09-13T02:06:47;19.80;95.70
66088;DHT22;52872;52.994;6.940;2022-09-13T02:09:18;19.80;95.70
66088;DHT22;52872;52.994;6.940;2022-09-13T02:11:51;19.80;95.90
66088;DHT22;52872;52.994;6.940;2022-09-13T02:14:51;19.80;96.00
66088;DHT22;52872;52.994;6.940;2022-09-13T02:17:25;19.80;96.00
66088;DHT22;52872;52.994;6.940;2022-09-13T02:22:35;19.70;96.20
66088;DHT22;52872;52.994;6.940;2022-09-13T02:25:11;19.70;96.20
66088;DHT22;52872;52.994;6.940;2022-09-13T02:27:42;19.70;96.30
66088;DHT22;52872;52.994;6.940;2022-09-13T02:30:11;19.60;96.30
66088;DHT22;52872;52.994;6.940;2022-09-13T02:32:41;19.60;96.40
66088;DHT22;52872;52.994;6.940;2022-09-13T02:35:20;19.60;96.50
66088;DHT22;52872;52.994;6.940;2022-09-13T02:37:54;19.60;96.50
66088;DHT22;52872;52.994;6.940;2022-09-13T02:40:26;19.60;96.50
66088;DHT22;52872;52.994;6.940;2022-09-13T02:43:00;19.60;96.60
66088;DHT22;52872;52.994;6.940;2022-09-13T02:45:39;19.50;96.70
66088;DHT22;52872;52.994;6.940;2022-09-13T02:48:40;19.60;96.70
66088;DHT22;52872;52.994;6.940;2022-09-13T02:54:29;19.60;96.80
66088;DHT22;52872;52.994;6.940;2022-09-13T02:57:18;19.50;96.90
66088;DHT22;52872;52.994;6.940;2022-09-13T02:59:47;19.50;97.00
66088;DHT22;52872;52.994;6.940;2022-09-13T03:02:17;19.50;97.00
66088;DHT22;52872;52.994;6.940;2022-09-13T03:04:44;19.50;97.00
66088;DHT22;52872;52.994;6.940;2022-09-13T03:07:13;19.50;97.00
66088;DHT22;52872;52.994;6.940;2022-09-13T03:09:48;19.50;97.00
66088;DHT22;52872;52.994;6.940;2022-09-13T03:15:17;19.50;97.00
66088;DHT22;52872;52.994;6.940;2022-09-13T03:18:14;19.50;97.10
66088;DHT22;52872;52.994;6.940;2022-09-13T03:21:07;19.50;97.10
66088;DHT22;52872;52.994;6.940;2022-09-13T03:23:40;19.50;97.20
66088;DHT22;52872;52.994;6.940;2022-09-13T03:28:56;19.50;97.30
66088;DHT22;52872;52.994;6.940;2022-09-13T03:31:47;19.50;97.30
66088;DHT22;52872;52.994;6.940;2022-09-13T03:34:32;19.50;97.20
66088;DHT22;52872;52.994;6.940;2022-09-13T03:37:16;19.50;97.30
66088;DHT22;52872;52.994;6.940;2022-09-13T03:39:58;19.50;97.40
66088;DHT22;52872;52.994;6.940;2022-09-13T03:42:40;19.50;97.40
66088;DHT22;52872;52.994;6.940;2022-09-13T03:45:10;19.50;97.50
66088;DHT22;52872;52.994;6.940;2022-09-13T03:47:40;19.40;97.50
66088;DHT22;52872;52.994;6.940;2022-09-13T03:50:09;19.40;97.50
66088;DHT22;52872;52.994;6.940;2022-09-13T03:52:39;19.40;97.50
66088;DHT22;52872;52.994;6.940;2022-09-13T03:55:11;19.40;97.60
66088;DHT22;52872;52.994;6.940;2022-09-13T03:57:38;19.40;97.70
66088;DHT22;52872;52.994;6.940;2022-09-13T04:00:05;19.40;97.70
66088;DHT22;52872;52.994;6.940;2022-09-13T04:02:37;19.40;97.70
66088;DHT22;52872;52.994;6.940;2022-09-13T04:05:04;19.40;97.80
66088;DHT22;52872;52.994;6.940;2022-09-13T04:07:31;19.50;97.90
66088;DHT22;52872;52.994;6.940;2022-09-13T04:09:58;19.50;97.90
66088;DHT22;52872;52.994;6.940;2022-09-13T04:12:25;19.50;97.90
66088;DHT22;52872;52.994;6.940;2022-09-13T04:14:54;19.50;98.00
66088;DHT22;52872;52.994;6.940;2022-09-13T04:17:20;19.50;98.00
66088;DHT22;52872;52.994;6.940;2022-09-13T04:19:48;19.50;98.10
66088;DHT22;52872;52.994;6.940;2022-09-13T04:22:15;19.60;98.20
66088;DHT22;52872;52.994;6.940;2022-09-13T04:24:42;19.60;98.30
66088;DHT22;52872;52.994;6.940;2022-09-13T04:27:09;19.60;98.30
66088;DHT22;52872;52.994;6.940;2022-09-13T04:29:37;19.60;98.40
66088;DHT22;52872;52.994;6.940;2022-09-13T04:32:05;19.60;98.50
66088;DHT22;52872;52.994;6.940;2022-09-13T04:34:32;19.60;98.60
66088;DHT22;52872;52.994;6.940;2022-09-13T04:36:58;19.60;98.70
66088;DHT22;52872;52.994;6.940;2022-09-13T04:39:25;19.60;98.80
66088;DHT22;52872;52.994;6.940;2022-09-13T04:41:52;19.60;98.90
66088;DHT22;52872;52.994;6.940;2022-09-13T04:44:21;19.60;99.00
66088;DHT22;52872;52.994;6.940;2022-09-13T04:46:50;19.60;99.00
66088;DHT22;52872;52.994;6.940;2022-09-13T04:49:17;19.60;99.00
66088;DHT22;52872;52.994;6.940;2022-09-13T04:51:45;19.60;99.00
66088;DHT22;52872;52.994;6.940;2022-09-13T04:54:13;19.60;99.00
66088;DHT22;52872;52.994;6.940;2022-09-13T04:56:43;19.70;99.10
66088;DHT22;52872;52.994;6.940;2022-09-13T04:59:10;19.60;99.20
66088;DHT22;52872;52.994;6.940;2022-09-13T05:01:38;19.60;99.30
66088;DHT22;52872;52.994;6.940;2022-09-13T05:04:06;19.60;99.30
66088;DHT22;52872;52.994;6.940;2022-09-13T05:06:33;19.60;99.40
66088;DHT22;52872;52.994;6.940;2022-09-13T05:09:01;19.60;99.40
66088;DHT22;52872;52.994;6.940;2022-09-13T05:11:29;19.60;99.40
66088;DHT22;52872;52.994;6.940;2022-09-13T05:13:57;19.70;99.40
66088;DHT22;52872;52.994;6.940;2022-09-13T05:16:27;19.70;99.30
66088;DHT22;52872;52.994;6.940;2022-09-13T05:18:55;19.70;99.30
66088;DHT22;52872;52.994;6.940;2022-09-13T05:21:23;19.70;99.30
66088;DHT22;52872;52.994;6.940;2022-09-13T05:23:51;19.70;99.30
66088;DHT22;52872;52.994;6.940;2022-09-13T05:26:18;19.70;99.30
66088;DHT22;52872;52.994;6.940;2022-09-13T05:28:45;19.80;99.30
66088;DHT22;52872;52.994;6.940;2022-09-13T05:31:13;19.80;99.30
66088;DHT22;52872;52.994;6.940;2022-09-13T05:33:41;19.80;99.30
66088;DHT22;52872;52.994;6.940;2022-09-13T05:36:08;19.80;99.30
66088;DHT22;52872;52.994;6.940;2022-09-13T05:38:35;19.80;99.30
66088;DHT22;52872;52.994;6.940;2022-09-13T05:41:03;19.80;99.20
66088;DHT22;52872;52.994;6.940;2022-09-13T05:43:33;19.80;99.20
66088;DHT22;52872;52.994;6.940;2022-09-13T05:48:32;19.80;99.40
66088;DHT22;52872;52.994;6.940;2022-09-13T05:51:28;19.90;99.10
66088;DHT22;52872;52.994;6.940;2022-09-13T05:53:57;19.90;98.90
66088;DHT22;52872;52.994;6.940;2022-09-13T05:56:27;19.90;99.10
66088;DHT22;52872;52.994;6.940;2022-09-13T05:58:54;19.90;99.00
66088;DHT22;52872;52.994;6.940;2022-09-13T06:01:24;19.90;99.00
66088;DHT22;52872;52.994;6.940;2022-09-13T06:03:53;19.90;99.00
66088;DHT22;52872;52.994;6.940;2022-09-13T06:06:21;19.90;99.00
66088;DHT22;52872;52.994;6.940;2022-09-13T06:08:55;19.90;98.90
66088;DHT22;52872;52.994;6.940;2022-09-13T06:11:23;19.90;98.90
66088;DHT22;52872;52.994;6.940;2022-09-13T06:13:51;19.90;98.80
66088;DHT22;52872;52.994;6.940;2022-09-13T06:16:19;20.00;98.90
66088;DHT22;52872;52.994;6.940;2022-09-13T06:18:46;20.00;98.80
66088;DHT22;52872;52.994;6.940;2022-09-13T06:21:16;20.00;98.80
66088;DHT22;52872;52.994;6.940;2022-09-13T06:23:49;20.00;98.70
66088;DHT22;52872;52.994;6.940;2022-09-13T06:26:18;20.00;98.60
66088;DHT22;52872;52.994;6.940;2022-09-13T06:28:50;20.00;98.80
66088;DHT22;52872;52.994;6.940;2022-09-13T06:31:19;20.00;98.70
66088;DHT22;52872;52.994;6.940;2022-09-13T06:33:47;20.00;98.80
66088;DHT22;52872;52.994;6.940;2022-09-13T06:36:16;20.00;98.70
66088;DHT22;52872;52.994;6.940;2022-09-13T06:38:45;20.00;98.70
66088;DHT22;52872;52.994;6.940;2022-09-13T06:41:23;20.00;98.80
66088;DHT22;52872;52.994;6.940;2022-09-13T06:43:55;20.00;98.80
66088;DHT22;52872;52.994;6.940;2022-09-13T06:46:24;19.90;98.90
66088;DHT22;52872;52.994;6.940;2022-09-13T06:48:51;19.90;98.90
66088;DHT22;52872;52.994;6.940;2022-09-13T06:51:23;19.90;98.90
66088;DHT22;52872;52.994;6.940;2022-09-13T06:53:51;19.90;98.90
66088;DHT22;52872;52.994;6.940;2022-09-13T06:56:23;20.00;99.00
66088;DHT22;52872;52.994;6.940;2022-09-13T06:58:54;20.00;99.00
66088;DHT22;52872;52.994;6.940;2022-09-13T07:01:27;20.00;98.90
66088;DHT22;52872;52.994;6.940;2022-09-13T07:04:01;20.10;98.80
66088;DHT22;52872;52.994;6.940;2022-09-13T07:06:34;20.10;98.70
66088;DHT22;52872;52.994;6.940;2022-09-13T07:09:03;20.20;98.60
66088;DHT22;52872;52.994;6.940;2022-09-13T07:11:36;20.20;98.50
66088;DHT22;52872;52.994;6.940;2022-09-13T07:14:04;20.30;98.40
66088;DHT22;52872;52.994;6.940;2022-09-13T07:16:34;20.40;98.40
66088;DHT22;52872;52.994;6.940;2022-09-13T07:19:04;20.40;98.30
66088;DHT22;52872;52.994;6.940;2022-09-13T07:21:33;20.50;98.20
66088;DHT22;52872;52.994;6.940;2022-09-13T07:24:00;20.50;98.10
66088;DHT22;52872;52.994;6.940;2022-09-13T07:26:27;20.60;98.00
66088;DHT22;52872;52.994;6.940;2022-09-13T07:28:57;20.70;97.90
66088;DHT22;52872;52.994;6.940;2022-09-13T07:31:26;20.80;97.90
66088;DHT22;52872;52.994;6.940;2022-09-13T07:33:59;20.90;97.80
66088;DHT22;52872;52.994;6.940;2022-09-13T07:36:28;21.00;97.60
66088;DHT22;52872;52.994;6.940;2022-09-13T07:38:56;21.10;97.40
66088;DHT22;52872;52.994;6.940;2022-09-13T07:41:26;21.10;97.30
66088;DHT22;52872;52.994;6.940;2022-09-13T07:43:54;21.20;97.20
66088;DHT22;52872;52.994;6.940;2022-09-13T07:46:24;21.30;97.00
66088;DHT22;52872;52.994;6.940;2022-09-13T07:48:53;21.20;96.60
66088;DHT22;52872;52.994;6.940;2022-09-13T07:51:22;21.30;96.60
66088;DHT22;52872;52.994;6.940;2022-09-13T07:53:51;21.40;96.40
66088;DHT22;52872;52.994;6.940;2022-09-13T07:56:25;21.60;96.30
66088;DHT22;52872;52.994;6.940;2022-09-13T07:58:54;22.00;96.00
66088;DHT22;52872;52.994;6.940;2022-09-13T08:01:23;22.30;94.60
66088;DHT22;52872;52.994;6.940;2022-09-13T08:03:58;22.70;93.30
66088;DHT22;52872;52.994;6.940;2022-09-13T08:06:28;22.80;92.60
66088;DHT22;52872;52.994;6.940;2022-09-13T08:08:56;22.80;93.10
66088;DHT22;52872;52.994;6.940;2022-09-13T08:11:43;22.90;92.50
66088;DHT22;52872;52.994;6.940;2022-09-13T08:14:14;23.00;92.10
66088;DHT22;52872;52.994;6.940;2022-09-13T08:16:41;22.80;92.10
66088;DHT22;52872;52.994;6.940;2022-09-13T08:19:11;22.80;92.20
66088;DHT22;52872;52.994;6.940;2022-09-13T08:21:40;23.00;92.00
66088;DHT22;52872;52.994;6.940;2022-09-13T08:24:15;23.20;91.40
66088;DHT22;52872;52.994;6.940;2022-09-13T08:26:43;23.30;91.00
66088;DHT22;52872;52.994;6.940;2022-09-13T08:29:11;23.30;91.20
66088;DHT22;52872;52.994;6.940;2022-09-13T08:31:38;23.50;90.70
66088;DHT22;52872;52.994;6.940;2022-09-13T08:34:08;23.60;90.50
66088;DHT22;52872;52.994;6.940;2022-09-13T08:36:37;23.70;90.40
66088;DHT22;52872;52.994;6.940;2022-09-13T08:39:03;23.80;89.80
66088;DHT22;52872;52.994;6.940;2022-09-13T08:44:27;24.10;88.10
66088;DHT22;52872;52.994;6.940;2022-09-13T08:47:11;23.90;87.70
66088;DHT22;52872;52.994;6.940;2022-09-13T08:49:46;23.70;87.50
66088;DHT22;52872;52.994;6.940;2022-09-13T08:54:41;23.40;88.10
66088;DHT22;52872;52.994;6.940;2022-09-13T08:57:23;23.30;87.30
66088;DHT22;52872;52.994;6.940;2022-09-13T09:05:21;23.20;86.00
66088;DHT22;52872;52.994;6.940;2022-09-13T09:08:02;23.00;85.70
66088;DHT22;52872;52.994;6.940;2022-09-13T09:10:32;22.70;85.70
66088;DHT22;52872;52.994;6.940;2022-09-13T09:13:24;22.50;86.00
66088;DHT22;52872;52.994;6.940;2022-09-13T09:16:25;22.50;85.20
66088;DHT22;52872;52.994;6.940;2022-09-13T09:18:56;22.50;85.80
66088;DHT22;52872;52.994;6.940;2022-09-13T09:21:26;22.40;86.10
66088;DHT22;52872;52.994;6.940;2022-09-13T09:23:54;22.30;85.60
66088;DHT22;52872;52.994;6.940;2022-09-13T09:26:23;22.20;85.10
66088;DHT22;52872;52.994;6.940;2022-09-13T09:34:26;22.60;84.90
66088;DHT22;52872;52.994;6.940;2022-09-13T09:39:32;22.80;83.30
66088;DHT22;52872;52.994;6.940;2022-09-13T09:42:16;22.70;82.80
66088;DHT22;52872;52.994;6.940;2022-09-13T09:45:32;22.70;83.40
66088;DHT22;52872;52.994;6.940;2022-09-13T09:47:45;22.60;84.00
66088;DHT22;52872;52.994;6.940;2022-09-13T09:50:17;22.60;82.80
66088;DHT22;52872;52.994;6.940;2022-09-13T09:58:03;22.40;83.50
66088;DHT22;52872;52.994;6.940;2022-09-13T10:00:51;22.50;81.90
66088;DHT22;52872;52.994;6.940;2022-09-13T10:03:27;22.40;81.10
66088;DHT22;52872;52.994;6.940;2022-09-13T10:06:05;22.50;80.80
66088;DHT22;52872;52.994;6.940;2022-09-13T10:08:35;22.80;80.60
66088;DHT22;52872;52.994;6.940;2022-09-13T10:11:03;23.00;80.80
66088;DHT22;52872;52.994;6.940;2022-09-13T10:13:31;23.20;80.80
66088;DHT22;52872;52.994;6.940;2022-09-13T10:16:04;23.60;80.40
66088;DHT22;52872;52.994;6.940;2022-09-13T10:18:34;23.80;79.60
66088;DHT22;52872;52.994;6.940;2022-09-13T10:23:44;23.80;77.90
66088;DHT22;52872;52.994;6.940;2022-09-13T10:26:22;23.50;78.20
66088;DHT22;52872;52.994;6.940;2022-09-13T10:29:00;23.20;78.60
66088;DHT22;52872;52.994;6.940;2022-09-13T10:31:36;22.90;78.50
66088;DHT22;52872;52.994;6.940;2022-09-13T10:34:06;22.70;79.80
66088;DHT22;52872;52.994;6.940;2022-09-13T10:39:21;23.00;79.20
66088;DHT22;52872;52.994;6.940;2022-09-13T10:41:59;22.90;77.50
66088;DHT22;52872;52.994;6.940;2022-09-13T10:44:43;22.80;76.10
66088;DHT22;52872;52.994;6.940;2022-09-13T10:47:19;22.70;76.60
66088;DHT22;52872;52.994;6.940;2022-09-13T10:49:51;22.60;78.00
66088;DHT22;52872;52.994;6.940;2022-09-13T10:52:50;22.50;77.20
66088;DHT22;52872;52.994;6.940;2022-09-13T10:57:45;22.30;77.60
66088;DHT22;52872;52.994;6.940;2022-09-13T11:00:15;22.40;77.70
66088;DHT22;52872;52.994;6.940;2022-09-13T11:13:20;23.00;74.80
66088;DHT22;52872;52.994;6.940;2022-09-13T11:46:08;24.60;72.00
66088;DHT22;52872;52.994;6.940;2022-09-13T11:54:20;24.00;73.40
66088;DHT22;52872;52.994;6.940;2022-09-13T11:56:58;23.90;73.00
66088;DHT22;52872;52.994;6.940;2022-09-13T11:59:45;23.70;72.00
66088;DHT22;52872;52.994;6.940;2022-09-13T12:02:26;23.50;72.10
66088;DHT22;52872;52.994;6.940;2022-09-13T12:13:33;23.80;71.00
66088;DHT22;52872;52.994;6.940;2022-09-13T12:16:08;23.90;71.10
66088;DHT22;52872;52.994;6.940;2022-09-13T12:18:41;24.00;70.60
66088;DHT22;52872;52.994;6.940;2022-09-13T12:21:11;24.00;70.20
66088;DHT22;52872;52.994;6.940;2022-09-13T12:23:45;24.10;70.40
66088;DHT22;52872;52.994;6.940;2022-09-13T12:26:29;24.20;69.60
66088;DHT22;52872;52.994;6.940;2022-09-13T12:29:00;24.20;68.60
66088;DHT22;52872;52.994;6.940;2022-09-13T12:31:30;24.00;68.00
66088;DHT22;52872;52.994;6.940;2022-09-13T12:33:58;24.00;69.00
66088;DHT22;52872;52.994;6.940;2022-09-13T12:53:34;24.30;68.80
66088;DHT22;52872;52.994;6.940;2022-09-13T13:04:57;24.00;68.60
66088;DHT22;52872;52.994;6.940;2022-09-13T13:07:27;24.00;69.20
66088;DHT22;52872;52.994;6.940;2022-09-13T13:09:56;24.10;68.70
66088;DHT22;52872;52.994;6.940;2022-09-13T13:12:30;24.10;68.50
66088;DHT22;52872;52.994;6.940;2022-09-13T13:17:51;23.90;68.40
66088;DHT22;52872;52.994;6.940;2022-09-13T13:23:33;23.90;68.30
66088;DHT22;52872;52.994;6.940;2022-09-13T13:26:08;24.00;69.00
66088;DHT22;52872;52.994;6.940;2022-09-13T13:36:43;24.00;68.80
66088;DHT22;52872;52.994;6.940;2022-09-13T13:41:52;24.20;68.50
66088;DHT22;52872;52.994;6.940;2022-09-13T13:46:48;24.10;67.90
66088;DHT22;52872;52.994;6.940;2022-09-13T13:57:26;23.90;68.40
66088;DHT22;52872;52.994;6.940;2022-09-13T14:00:14;23.90;68.80
66088;DHT22;52872;52.994;6.940;2022-09-13T14:16:56;24.30;69.60
66088;DHT22;52872;52.994;6.940;2022-09-13T14:19:33;24.20;70.10
66088;DHT22;52872;52.994;6.940;2022-09-13T14:24:43;24.00;69.90
66088;DHT22;52872;52.994;6.940;2022-09-13T14:29:55;23.80;69.80
66088;DHT22;52872;52.994;6.940;2022-09-13T14:32:23;23.60;70.10
66088;DHT22;52872;52.994;6.940;2022-09-13T14:35:04;23.50;71.10
66088;DHT22;52872;52.994;6.940;2022-09-13T14:37:36;23.40;71.20
66088;DHT22;52872;52.994;6.940;2022-09-13T14:40:20;23.40;70.30
66088;DHT22;52872;52.994;6.940;2022-09-13T14:42:50;23.40;70.70
66088;DHT22;52872;52.994;6.940;2022-09-13T14:45:31;23.40;70.60
66088;DHT22;52872;52.994;6.940;2022-09-13T14:48:09;23.60;70.80
66088;DHT22;52872;52.994;6.940;2022-09-13T14:50:48;23.60;70.90
66088;DHT22;52872;52.994;6.940;2022-09-13T14:53:25;23.60;70.20
66088;DHT22;52872;52.994;6.940;2022-09-13T14:56:02;23.50;70.60
66088;DHT22;52872;52.994;6.940;2022-09-13T14:58:52;23.40;70.80
66088;DHT22;52872;52.994;6.940;2022-09-13T15:01:33;23.40;70.10
66088;DHT22;52872;52.994;6.940;2022-09-13T15:04:02;23.40;70.60
66088;DHT22;52872;52.994;6.940;2022-09-13T15:06:37;23.30;70.60
66088;DHT22;52872;52.994;6.940;2022-09-13T15:14:33;23.30;70.10
66088;DHT22;52872;52.994;6.940;2022-09-13T15:17:10;23.20;69.80
66088;DHT22;52872;52.994;6.940;2022-09-13T15:19:48;23.20;70.40
66088;DHT22;52872;52.994;6.940;2022-09-13T15:22:21;23.10;70.20
66088;DHT22;52872;52.994;6.940;2022-09-13T15:24:54;23.10;70.90
66088;DHT22;52872;52.994;6.940;2022-09-13T15:30:02;23.30;69.50
66088;DHT22;52872;52.994;6.940;2022-09-13T15:32:42;23.20;70.00
66088;DHT22;52872;52.994;6.940;2022-09-13T15:35:30;23.10;69.70
66088;DHT22;52872;52.994;6.940;2022-09-13T15:38:06;23.00;69.90
66088;DHT22;52872;52.994;6.940;2022-09-13T15:40:43;22.70;70.40
66088;DHT22;52872;52.994;6.940;2022-09-13T15:43:10;22.70;70.20
66088;DHT22;52872;52.994;6.940;2022-09-13T15:45:37;22.70;70.10
66088;DHT22;52872;52.994;6.940;2022-09-13T15:48:04;22.70;70.60
66088;DHT22;52872;52.994;6.940;2022-09-13T15:50:31;22.60;70.70
66088;DHT22;52872;52.994;6.940;2022-09-13T15:53:00;22.70;71.00
66088;DHT22;52872;52.994;6.940;2022-09-13T15:55:27;22.60;70.60
66088;DHT22;52872;52.994;6.940;2022-09-13T15:57:56;22.60;70.50
66088;DHT22;52872;52.994;6.940;2022-09-13T16:00:25;22.50;70.50
66088;DHT22;52872;52.994;6.940;2022-09-13T16:02:53;22.40;70.70
66088;DHT22;52872;52.994;6.940;2022-09-13T16:05:21;22.30;71.10
66088;DHT22;52872;52.994;6.940;2022-09-13T16:07:47;22.30;70.80
66088;DHT22;52872;52.994;6.940;2022-09-13T16:10:18;22.20;71.40
66088;DHT22;52872;52.994;6.940;2022-09-13T16:12:46;22.20;71.40
66088;DHT22;52872;52.994;6.940;2022-09-13T16:15:13;22.10;72.10
66088;DHT22;52872;52.994;6.940;2022-09-13T16:17:40;22.00;71.80
66088;DHT22;52872;52.994;6.940;2022-09-13T16:20:11;21.90;72.40
66088;DHT22;52872;52.994;6.940;2022-09-13T16:22:39;21.90;72.10
66088;DHT22;52872;52.994;6.940;2022-09-13T16:25:06;21.90;72.10
66088;DHT22;52872;52.994;6.940;2022-09-13T16:27:33;21.90;72.10
66088;DHT22;52872;52.994;6.940;2022-09-13T16:30:00;21.90;72.30
66088;DHT22;52872;52.994;6.940;2022-09-13T16:32:27;22.00;72.70
66088;DHT22;52872;52.994;6.940;2022-09-13T16:34:54;21.90;71.70
66088;DHT22;52872;52.994;6.940;2022-09-13T16:37:21;21.80;72.20
66088;DHT22;52872;52.994;6.940;2022-09-13T16:39:48;21.70;72.30
66088;DHT22;52872;52.994;6.940;2022-09-13T16:42:16;21.60;72.30
66088;DHT22;52872;52.994;6.940;2022-09-13T16:44:43;21.60;72.90
66088;DHT22;52872;52.994;6.940;2022-09-13T16:47:10;21.50;72.40
66088;DHT22;52872;52.994;6.940;2022-09-13T16:49:37;21.50;72.40
66088;DHT22;52872;52.994;6.940;2022-09-13T16:52:04;21.40;73.30
66088;DHT22;52872;52.994;6.940;2022-09-13T16:54:31;21.30;73.30
66088;DHT22;52872;52.994;6.940;2022-09-13T16:57:01;21.20;72.80
66088;DHT22;52872;52.994;6.940;2022-09-13T16:59:30;21.00;73.20
66088;DHT22;52872;52.994;6.940;2022-09-13T17:01:57;20.90;73.70
66088;DHT22;52872;52.994;6.940;2022-09-13T17:04:25;20.80;74.30
66088;DHT22;52872;52.994;6.940;2022-09-13T17:06:51;20.70;75.00
66088;DHT22;52872;52.994;6.940;2022-09-13T17:09:18;20.60;75.10
66088;DHT22;52872;52.994;6.940;2022-09-13T17:11:48;20.60;75.80
66088;DHT22;52872;52.994;6.940;2022-09-13T17:14:15;20.50;76.30
66088;DHT22;52872;52.994;6.940;2022-09-13T17:16:46;20.40;76.40
66088;DHT22;52872;52.994;6.940;2022-09-13T17:19:17;20.40;76.90
66088;DHT22;52872;52.994;6.940;2022-09-13T17:21:45;20.30;76.80
66088;DHT22;52872;52.994;6.940;2022-09-13T17:24:12;20.30;77.00
66088;DHT22;52872;52.994;6.940;2022-09-13T17:26:40;20.20;77.00
66088;DHT22;52872;52.994;6.940;2022-09-13T17:29:10;20.20;77.40
66088;DHT22;52872;52.994;6.940;2022-09-13T17:31:37;20.10;77.90
66088;DHT22;52872;52.994;6.940;2022-09-13T17:34:04;20.10;77.90
66088;DHT22;52872;52.994;6.940;2022-09-13T17:36:31;20.00;78.20
66088;DHT22;52872;52.994;6.940;2022-09-13T17:38:58;20.00;78.40
66088;DHT22;52872;52.994;6.940;2022-09-13T17:41:25;20.00;78.30
66088;DHT22;52872;52.994;6.940;2022-09-13T17:43:52;20.00;78.50
66088;DHT22;52872;52.994;6.940;2022-09-13T17:46:22;19.90;78.70
66088;DHT22;52872;52.994;6.940;2022-09-13T17:48:50;19.90;78.90
66088;DHT22;52872;52.994;6.940;2022-09-13T17:51:23;19.90;78.50
66088;DHT22;52872;52.994;6.940;2022-09-13T17:53:59;19.80;78.60
66088;DHT22;52872;52.994;6.940;2022-09-13T17:56:36;19.80;78.80
66088;DHT22;52872;52.994;6.940;2022-09-13T17:59:06;19.70;79.00
66088;DHT22;52872;52.994;6.940;2022-09-13T18:01:37;19.70;79.20
66088;DHT22;52872;52.994;6.940;2022-09-13T18:04:05;19.60;79.50
66088;DHT22;52872;52.994;6.940;2022-09-13T18:06:34;19.50;79.70
66088;DHT22;52872;52.994;6.940;2022-09-13T18:09:02;19.40;80.10
66088;DHT22;52872;52.994;6.940;2022-09-13T18:11:29;19.40;80.20
66088;DHT22;52872;52.994;6.940;2022-09-13T18:13:56;19.40;80.50
66088;DHT22;52872;52.994;6.940;2022-09-13T18:16:25;19.30;81.20
66088;DHT22;52872;52.994;6.940;2022-09-13T18:18:52;19.20;82.00
66088;DHT22;52872;52.994;6.940;2022-09-13T18:21:21;19.20;81.70
66088;DHT22;52872;52.994;6.940;2022-09-13T18:23:50;19.10;82.20
66088;DHT22;52872;52.994;6.940;2022-09-13T18:26:21;19.00;82.80
66088;DHT22;52872;52.994;6.940;2022-09-13T18:28:56;18.90;83.60
66088;DHT22;52872;52.994;6.940;2022-09-13T18:31:24;18.90;84.00
66088;DHT22;52872;52.994;6.940;2022-09-13T18:33:56;18.80;84.40
66088;DHT22;52872;52.994;6.940;2022-09-13T18:36:24;18.70;84.70
66088;DHT22;52872;52.994;6.940;2022-09-13T18:38:52;18.70;84.80
66088;DHT22;52872;52.994;6.940;2022-09-13T18:41:24;18.60;85.10
66088;DHT22;52872;52.994;6.940;2022-09-13T18:43:53;18.60;85.30
66088;DHT22;52872;52.994;6.940;2022-09-13T18:46:23;18.60;85.70
66088;DHT22;52872;52.994;6.940;2022-09-13T18:48:53;18.60;85.80
66088;DHT22;52872;52.994;6.940;2022-09-13T18:51:25;18.60;86.10
66088;DHT22;52872;52.994;6.940;2022-09-13T18:53:53;18.50;86.20
66088;DHT22;52872;52.994;6.940;2022-09-13T18:56:22;18.50;86.70
66088;DHT22;52872;52.994;6.940;2022-09-13T18:58:51;18.40;86.80
66088;DHT22;52872;52.994;6.940;2022-09-13T19:01:24;18.30;86.90
66088;DHT22;52872;52.994;6.940;2022-09-13T19:03:54;18.40;87.00
66088;DHT22;52872;52.994;6.940;2022-09-13T19:06:30;18.30;87.60
66088;DHT22;52872;52.994;6.940;2022-09-13T19:08:59;18.20;88.00
66088;DHT22;52872;52.994;6.940;2022-09-13T19:11:33;18.10;88.20
66088;DHT22;52872;52.994;6.940;2022-09-13T19:14:20;18.10;88.40
66088;DHT22;52872;52.994;6.940;2022-09-13T19:16:50;18.10;88.60
66088;DHT22;52872;52.994;6.940;2022-09-13T19:19:17;18.10;88.80
66088;DHT22;52872;52.994;6.940;2022-09-13T19:21:45;18.00;89.00
66088;DHT22;52872;52.994;6.940;2022-09-13T19:24:13;18.00;89.20